This is the latest recevied weather packets stored in our database for station/object CE1RLP-31. If no packets are shown the sender has not sent any weather packets the latest 10 day(s).
| Time | Temp. | Humidity | Pressure | Rain* | Wind** | Luminosity | Snow |
|---|---|---|---|---|---|---|---|
| 1777576053 | 14.44° C | 9% | 1096.9 hPa | - | - | - | - |
| 1777575153 | 15° C | 9% | 1097 hPa | - | - | - | - |
| 1777574252 | 15.56° C | 9% | 1097.1 hPa | - | - | - | - |
| 1777573352 | 16.11° C | 10% | 1097.1 hPa | - | - | - | - |
| 1777572452 | 16.67° C | 10% | 1097.2 hPa | - | - | - | - |
| 1777571552 | 16.67° C | 10% | 1097.4 hPa | - | - | - | - |
| 1777570652 | 16.67° C | 9% | 1097.5 hPa | - | - | - | - |
| 1777569752 | 17.22° C | 8% | 1097.5 hPa | - | - | - | - |
| 1777568852 | 17.22° C | 8% | 1097.6 hPa | - | - | - | - |
| 1777567952 | 16.67° C | 9% | 1097.8 hPa | - | - | - | - |
| 1777567052 | 16.67° C | 8% | 1097.9 hPa | - | - | - | - |
| 1777566151 | 16.67° C | 8% | 1097.8 hPa | - | - | - | - |
| 1777565251 | 16.11° C | 9% | 1098.1 hPa | - | - | - | - |
| 1777564362 | 15.56° C | 9% | 1098.2 hPa | - | - | - | - |
| 1777563453 | 15° C | 9% | 1098.2 hPa | - | - | - | - |
| 1777562553 | 14.44° C | 9% | 1098.2 hPa | - | - | - | - |
| 1777561653 | 13.89° C | 8% | 1098.2 hPa | - | - | - | - |
| 1777560753 | 13.89° C | 9% | 1098.3 hPa | - | - | - | - |
| 1777559852 | 12.78° C | 9% | 1098.3 hPa | - | - | - | - |
| 1777558952 | 12.22° C | 10% | 1098.3 hPa | - | - | - | - |
| 1777558052 | 12.22° C | 9% | 1098.2 hPa | - | - | - | - |
| 1777557152 | 11.67° C | 10% | 1098 hPa | - | - | - | - |
| 1777556252 | 10.56° C | 10% | 1097.9 hPa | - | - | - | - |
| 1777555352 | -2.78° C | 10% | 1084.4 hPa | - | - | - | - |
| 1777554452 | 9.44° C | 9% | 1097.6 hPa | - | - | - | - |
* Rain since midnight (hover to see other rain measurements)
** Current wind speed in m/s (hover to see current wind gust speed)